Latest Weather Observations for Bellambi

IDN60901

Issued at 10:55 pm EST Tuesday 29 July 2014 (issued every 10 minutes, with the page automatically refreshed every 10 minutes)

About weather observations | Map of Sydney area stations | Latest observations for Sydney area | Other Formats
Station Details ID: 068228 Name: BELLAMBI AWS Lat: -34.37 Lon: 150.93 Height: 10.0 m
Data from the previous 72 hours. | See also: Recent months at Bellambi
Date/Time
EST
Tmp

°C
App
Tmp
°C
Dew
Point
°C
Rel
Hum
%
Delta-T

°C
Wind Press
QNH
hPa
Press
MSL
hPa
Rain
since
9 am
mm
Dir
 
Spd
km/h
Gust
km/h
Spd
kts
Gust
kts
29/10:30pm 14.1 10.9 3.0 47 5.0 NW 9 13 5 7 - - -
29/10:00pm 16.3 13.0 6.4 52 4.8 N 13 17 7 9 - - -
29/09:30pm 15.2 11.9 4.6 49 4.9 NNW 11 17 6 9 - - -
29/09:00pm 15.9 12.5 4.0 45 5.5 NNW 11 13 6 7 - - 0.0
29/08:30pm 17.7 13.4 3.2 38 6.7 N 15 19 8 10 - - -
29/08:00pm 17.9 14.2 4.5 41 6.4 N 13 20 7 11 - - -
29/07:30pm 18.0 13.5 1.9 34 7.3 NNW 15 22 8 12 - - -
29/07:00pm 18.2 13.6 1.3 32 7.5 NW 15 20 8 11 - - -
29/06:30pm 18.2 14.4 1.7 33 7.4 NW 11 20 6 11 - - -
29/06:00pm 19.4 14.2 -0.1 27 8.5 WNW 17 26 9 14 - - -
29/05:30pm 19.3 15.7 0.4 28 8.4 NW 9 13 5 7 - - -
29/05:00pm 20.5 15.7 0.4 26 9.0 NW 15 24 8 13 - - -
29/04:30pm 22.1 17.6 0.0 23 9.9 WNW 13 20 7 11 - - -
29/04:00pm 22.7 17.8 -0.7 21 10.4 W 15 22 8 12 - - -
29/03:30pm 23.2 18.5 0.9 23 10.3 WNW 15 26 8 14 - - -
29/03:00pm 23.1 17.5 0.2 22 10.4 W 19 28 10 15 - - -
29/02:30pm 23.0 17.2 0.2 22 10.4 NW 20 33 11 18 - - -
29/02:00pm 20.0 14.9 9.3 50 5.7 NNE 26 32 14 17 - - -
29/01:30pm 20.4 16.2 7.4 43 6.7 NNE 19 28 10 15 - - -
29/01:00pm 19.6 14.6 8.0 47 6.0 NE 24 30 13 16 - - -
29/12:30pm 19.4 15.3 6.2 42 6.6 NE 17 24 9 13 - - -
29/12:00pm 18.6 13.7 5.1 41 6.5 NNE 20 26 11 14 - - -
29/11:00am 17.8 12.3 5.7 45 5.9 NNE 24 32 13 17 - - 0.0
29/10:30am 17.2 11.6 5.2 45 5.8 N 24 35 13 19 - - 0.0
29/10:00am 16.4 11.3 4.1 44 5.7 N 20 28 11 15 - - 0.0
29/09:30am 16.5 11.7 4.5 45 5.6 N 19 24 10 13 - - 0.0
29/09:00am 16.0 11.0 3.4 43 5.8 N 19 24 10 13 - - 0.0
29/08:30am 15.5 10.1 4.5 48 5.1 NNW 22 30 12 16 - - 0.0
29/08:00am 15.6 8.7 2.7 42 5.8 NNW 28 33 15 18 - - 0.0
29/07:30am 16.4 9.0 2.1 38 6.4 NW 30 37 16 20 - - 0.0
29/07:00am 16.0 7.9 1.0 36 6.5 WNW 33 43 18 23 - - 0.0
29/06:30am 15.2 7.5 2.1 41 5.8 WNW 32 43 17 23 - - 0.0
29/06:00am 14.4 8.7 2.9 46 5.1 WNW 22 30 12 16 - - 0.0
29/05:30am 13.4 8.4 3.8 52 4.3 WNW 19 35 10 19 - - 0.0
29/05:00am 13.6 9.6 5.0 56 4.0 NW 15 20 8 11 - - 0.0
29/04:30am 12.8 9.1 4.3 56 3.9 NW 13 19 7 10 - - 0.0
29/04:00am 13.5 10.8 3.6 51 4.5 W 7 11 4 6 - - 0.0
29/03:30am 13.9 11.4 4.5 53 4.3 NW 7 17 4 9 - - 0.0
29/03:00am 14.3 11.5 5.1 54 4.3 N 9 13 5 7 - - 0.0
29/02:30am 13.8 11.1 3.6 50 4.6 SW 7 11 4 6 - - 0.0
29/02:00am 14.8 12.4 4.5 50 4.8 NNE 6 11 3 6 - - 0.0
29/01:30am 15.0 11.5 7.3 60 3.8 NNE 15 17 8 9 - - 0.0
29/01:00am 15.9 12.2 4.6 47 5.3 NNW 13 20 7 11 - - 0.0
29/12:30am 15.7 12.3 5.9 52 4.7 E 13 17 7 9 - - 0.0
29/12:00am 15.6 13.1 4.6 48 5.1 ENE 7 13 4 7 - - 0.0
 
Date/Time
EST
Tmp

°C
App
Tmp
°C
Dew
Point
°C
Rel
Hum
%
Delta-T

°C
Wind Press
QNH
hPa
Press
MSL
hPa
Rain
since
9 am
mm
Dir
 
Spd
km/h
Gust
km/h
Spd
kts
Gust
kts
28/11:30pm 15.8 12.1 4.5 47 5.3 NE 13 22 7 12 - - 0.0
28/11:00pm 15.3 12.4 4.9 50 4.9 NE 9 13 5 7 - - 0.0
28/10:30pm 15.3 12.8 4.7 49 5.0 N 7 15 4 8 - - 0.0
28/10:00pm 15.4 12.5 4.8 49 5.0 NNW 9 19 5 10 - - 0.0
28/09:30pm 15.4 12.0 4.2 47 5.2 WNW 11 22 6 12 - - 0.0
28/09:00pm 15.1 11.7 4.2 48 5.0 WNW 11 17 6 9 - - 0.0
28/08:30pm 14.9 11.9 4.3 49 4.9 WNW 9 13 5 7 - - 0.0
28/08:00pm 15.3 13.1 5.2 51 4.8 WNW 6 15 3 8 - - 0.0
28/07:30pm 14.9 12.0 4.6 50 4.8 WNW 9 17 5 9 - - 0.0
28/07:00pm 15.7 13.4 4.7 48 5.2 NW 6 13 3 7 - - 0.0
28/06:30pm 16.1 13.5 6.0 51 4.9 N 9 15 5 8 - - 0.0
28/06:00pm 16.5 13.0 3.6 42 6.0 NW 11 19 6 10 - - 0.0
28/05:30pm 16.2 13.7 3.6 43 5.8 W 6 13 3 7 - - 0.0
28/05:00pm 16.7 14.1 4.1 43 5.9 WNW 7 13 4 7 - - 0.0
28/04:30pm 17.1 14.7 4.1 42 6.1 WSW 6 9 3 5 - - 0.0
28/04:00pm 17.8 15.1 3.7 39 6.6 W 7 13 4 7 - - 0.0
28/03:30pm 18.1 14.3 3.9 39 6.7 SW 13 22 7 12 - - 0.0
28/03:00pm 18.3 12.3 3.4 37 6.9 WSW 24 35 13 19 - - 0.0
28/02:30pm 18.4 13.7 3.1 36 7.1 W 17 30 9 16 - - 0.0
28/02:00pm 18.2 15.5 3.7 38 6.8 SW 7 11 4 6 - - 0.0
28/01:30pm 18.3 14.7 3.0 36 7.1 SW 11 19 6 10 - - 0.0
28/01:00pm 18.4 14.1 3.5 37 7.0 SW 15 24 8 13 - - 0.0
28/12:30pm 18.5 13.3 2.4 34 7.4 WSW 19 33 10 18 - - 0.0
28/12:00pm 18.9 13.8 3.1 35 7.4 SW 19 24 10 13 - - 0.0
28/11:30am 17.8 13.0 4.4 41 6.4 W 19 28 10 15 - - 0.0
28/11:00am 17.0 11.1 3.7 41 6.2 WSW 24 35 13 19 - - 0.0
28/10:30am 16.9 12.0 3.9 42 6.1 WSW 19 32 10 17 - - 0.0
28/10:00am 16.4 11.3 4.1 44 5.7 WSW 20 32 11 17 - - 0.0
28/09:30am 15.2 12.2 4.0 47 5.2 SSE 9 13 5 7 - - 0.0
28/09:00am 14.2 10.8 4.2 51 4.6 SW 11 17 6 9 - - 0.0
28/08:30am 13.2 8.5 3.3 51 4.4 WSW 17 22 9 12 - - 0.0
28/08:00am 12.7 8.5 3.6 54 4.1 WSW 15 24 8 13 - - 0.0
28/07:30am 12.5 7.9 3.5 54 4.0 WSW 17 24 9 13 - - 0.0
28/07:00am 11.8 8.7 3.6 57 3.6 W 9 17 5 9 - - 0.0
28/06:30am 11.8 8.3 3.3 56 3.7 WSW 11 20 6 11 - - 0.0
28/06:00am 12.1 7.5 3.6 56 3.8 W 17 28 9 15 - - 0.0
28/05:30am 12.1 7.9 3.6 56 3.8 W 15 26 8 14 - - 0.0
28/05:00am 12.3 7.1 3.8 56 3.8 W 20 35 11 19 - - 0.0
28/04:30am 12.5 7.3 3.7 55 3.9 W 20 43 11 23 - - 0.0
28/04:00am 12.3 7.3 3.5 55 3.9 WSW 19 30 10 16 - - 0.0
28/03:30am 12.1 7.1 3.6 56 3.8 W 19 26 10 14 - - 0.0
28/03:00am 12.1 6.2 4.1 58 3.6 WNW 24 35 13 19 - - 0.0
28/02:30am 12.1 8.7 4.1 58 3.6 W 11 19 6 10 - - 0.0
28/02:00am 12.2 7.3 3.9 57 3.7 WNW 19 28 10 15 - - 0.0
28/01:30am 12.5 7.5 4.5 58 3.6 NW 20 26 11 14 - - 0.0
28/01:00am 11.9 8.4 3.7 57 3.7 SSW 11 15 6 8 - - 0.0
28/12:30am 12.5 9.5 4.0 56 3.8 SW 9 20 5 11 - - 0.0
28/12:00am 12.4 9.8 4.4 58 3.6 S 7 19 4 10 - - 0.0
 
Date/Time
EST
Tmp

°C
App
Tmp
°C
Dew
Point
°C
Rel
Hum
%
Delta-T

°C
Wind Press
QNH
hPa
Press
MSL
hPa
Rain
since
9 am
mm
Dir
 
Spd
km/h
Gust
km/h
Spd
kts
Gust
kts
27/11:30pm 12.1 9.6 3.9 57 3.7 NW 6 11 3 6 - - 0.0
27/11:00pm 12.7 8.5 3.6 54 4.1 NNW 15 22 8 12 - - 0.0
27/10:30pm 12.9 9.5 4.1 55 4.0 W 11 20 6 11 - - 0.0
27/10:00pm 13.1 9.0 4.5 56 3.9 NW 15 22 8 12 - - 0.0
27/09:30pm 13.4 8.9 4.0 53 4.3 WNW 17 28 9 15 - - 0.0
27/09:00pm 13.4 8.9 4.3 54 4.2 W 17 33 9 18 - - 0.0
27/08:30pm 13.1 9.8 4.3 55 4.0 W 11 19 6 10 - - 0.0
27/08:00pm 12.9 9.9 4.3 56 3.9 SSW 9 15 5 8 - - 0.0
27/07:30pm 14.1 9.6 4.4 52 4.5 SW 17 30 9 16 - - 0.0
27/07:00pm 13.8 9.8 4.9 55 4.1 WSW 15 26 8 14 - - 0.0
27/06:30pm 13.5 10.1 5.9 60 3.6 W 13 15 7 8 - - 0.0
27/06:00pm 13.5 11.4 6.6 63 3.3 W 7 11 4 6 - - 0.0
27/05:30pm 14.1 11.7 6.9 62 3.5 W 9 11 5 6 - - 0.0
27/05:00pm 15.4 14.6 6.7 56 4.2 CALM 0 0 0 0 - - 0.0
27/04:30pm 16.0 13.8 6.4 53 4.7 SE 7 9 4 5 - - 0.0
27/04:00pm 16.6 14.4 7.8 56 4.4 SE 9 11 5 6 - - 0.0
27/03:30pm 16.9 14.0 6.7 51 5.0 SE 11 13 6 7 - - 0.0
27/03:00pm 17.1 14.1 7.7 54 4.7 SE 13 15 7 8 - - 0.0
27/02:30pm 17.4 14.3 7.2 51 5.1 SE 13 17 7 9 - - 0.0
27/02:00pm 17.3 13.1 5.9 47 5.6 SE 17 19 9 10 - - 0.0
27/01:30pm 16.6 12.2 6.7 52 4.9 SE 19 22 10 12 - - 0.0
27/01:00pm 17.8 13.5 7.0 49 5.4 SE 19 20 10 11 - - 0.0
27/12:30pm 17.9 13.7 5.8 45 5.9 SSE 17 20 9 11 - - 0.0
27/12:00pm 18.0 14.2 5.6 44 6.0 S 15 19 8 10 - - 0.0
27/11:30am 17.6 12.5 3.9 40 6.4 SSW 20 28 11 15 - - 0.0
27/11:00am 18.0 13.2 4.6 41 6.4 SSW 19 26 10 14 - - 0.0
27/10:30am 17.6 12.8 4.5 42 6.2 SSW 19 28 10 15 - - 0.0
27/10:00am 16.9 11.8 4.3 43 5.9 SW 20 30 11 16 - - 0.0
27/09:30am 16.1 11.1 4.5 46 5.4 SW 20 30 11 16 - - 0.0
27/09:00am 15.6 11.2 4.6 48 5.1 WSW 17 24 9 13 - - 0.2
27/08:30am 14.8 11.2 5.1 52 4.6 WSW 13 20 7 11 - - 0.2
27/08:00am 13.6 9.9 4.7 55 4.1 W 13 17 7 9 - - 0.2
27/07:30am 12.8 8.8 4.8 58 3.7 W 15 20 8 11 - - 0.2
27/07:00am 12.2 7.4 4.7 60 3.4 W 19 24 10 13 - - 0.2
27/06:30am 12.1 8.8 4.6 60 3.4 W 11 15 6 8 - - 0.2
27/06:00am 12.0 8.7 4.7 61 3.3 WSW 11 15 6 8 - - 0.2
27/05:30am 11.9 8.3 4.9 62 3.2 WSW 13 17 7 9 - - 0.2
27/05:00am 12.2 8.2 4.9 61 3.3 WSW 15 22 8 12 - - 0.2
27/04:30am 12.2 8.6 4.9 61 3.3 WSW 13 19 7 10 - - 0.2
27/04:00am 12.4 7.7 5.1 61 3.4 W 19 26 10 14 - - 0.2
27/03:30am 12.1 8.5 5.0 62 3.3 WSW 13 19 7 10 - - 0.2
27/03:00am 12.0 8.8 5.0 62 3.2 W 11 17 6 9 - - 0.2
27/02:30am 12.3 8.7 5.2 62 3.3 WSW 13 17 7 9 - - 0.2
27/02:00am 12.6 8.6 5.1 60 3.5 W 15 20 8 11 - - 0.2
27/01:30am 13.1 8.7 5.0 58 3.7 WSW 17 24 9 13 - - 0.2
27/01:00am 13.4 8.6 4.8 56 4.0 WSW 19 28 10 15 - - 0.2
27/12:30am 13.7 8.0 5.1 56 4.0 WSW 24 35 13 19 - - 0.2
27/12:00am 13.9 8.6 5.0 55 4.1 WSW 22 33 12 18 - - 0.2
 
Date/Time
EST
Tmp

°C
App
Tmp
°C
Dew
Point
°C
Rel
Hum
%
Delta-T

°C
Wind Press
QNH
hPa
Press
MSL
hPa
Rain
since
9 am
mm
Dir
 
Spd
km/h
Gust
km/h
Spd
kts
Gust
kts
26/11:30pm 13.9 9.0 5.0 55 4.1 W 20 30 11 16 - - 0.2
26/11:00pm 14.0 9.1 5.1 55 4.2 W 20 30 11 16 - - 0.2

Latest Capital City Observations: Canberra | Sydney | Melbourne | Brisbane | Adelaide | Perth | Hobart | Darwin

Other Formats:

Comma delimited format used in spreadsheet applications
http://www.bom.gov.au/fwo/IDN60901/IDN60901.94749.axf

JavaScript Object Notation format (JSON) in row-major order
http://www.bom.gov.au/fwo/IDN60901/IDN60901.94749.json